Startpagina
METAR-TAF:

METAR-TAF

Vliegvelden :

Novosibirsk, Rusland

Luchthaven Tolmatsjovo

breedte: 55-01N, lengte: 082-38E, hoogte: 111 m

Actueel weer

Dit bericht is 39 minuten geleden gemaakt, om 22:30 UTC
Wind 8 kt uit het zuiden
Temperatuur 18°C
Vochtigheid 39%
Druk 1007 hPa
Zicht 10 km of meer
geen wolken onder 1500 m en geen cumulonimbus

METAR: UNNT 222230Z 18004MPS CAVOK 18/04 Q1007 R25/090070 R16/090070 NOSIG RMK QFE746/0994

Tijdstip: 06:09 (23:09 UTC)

Verwachting

Dit bericht is 3 uur en het 9 minuten geleden gemaakt, om 20:00 UTC
Verwachting geldig van 22 om 21 UTC tot 23 om 21 UTC
Wind 12 kt uit het zuiden met uitschieters tot 23 kt
Zicht 10 km of meer
geen wolken onder 1500 m en geen cumulonimbus
Wijzigt naar
van 23 om 04 UTC tot 23 om 06 UTC
Wind 21 kt uit het zuiden met uitschieters tot 31 kt
Wijzigt naar
van 23 om 12 UTC tot 23 om 14 UTC
Wind 12 kt uit het zuiden

TAF: UNNT 222000Z 2221/2321 18006G12MPS CAVOK BECMG 2304/2306 19011G16MPS BECMG 2312/2314 19006MPS

Waarnemingen en weersverwachtingen van meer dan 4000 vliegvelden (METAR en TAF).

De beschikbare stations zijn de gele en rode punten op de kaart.

Ga met uw muis naar het station om de naam te zien.

Klik dan om waarnemingen en weersverwachtingen te zien.

kaart wijzigen: klik op de groene knoppen met een zwart kruis om in te zoomen, op de groene knop met een streepje om uit te zoomen of op de groene pijlen voor aangrenzende kaarten.


METAR-TAF: